sensor_id;sensor_type;location;lat;lon;timestamp;temperature;humidity
22471;DHT22;11402;51.374;6.594;2024-01-15T02:08:01;2.30;99.90
22471;DHT22;11402;51.374;6.594;2024-01-15T02:10:27;2.70;99.90
22471;DHT22;11402;51.374;6.594;2024-01-15T02:12:52;2.50;99.90
22471;DHT22;11402;51.374;6.594;2024-01-15T02:15:18;2.50;99.90
22471;DHT22;11402;51.374;6.594;2024-01-15T02:18:06;2.40;99.90
22471;DHT22;11402;51.374;6.594;2024-01-15T02:20:35;2.20;99.90
22471;DHT22;11402;51.374;6.594;2024-01-15T02:23:15;2.40;99.90
22471;DHT22;11402;51.374;6.594;2024-01-15T02:25:45;2.40;99.90
22471;DHT22;11402;51.374;6.594;2024-01-15T02:28:13;2.50;99.90
22471;DHT22;11402;51.374;6.594;2024-01-15T02:30:39;2.40;99.90
22471;DHT22;11402;51.374;6.594;2024-01-15T02:33:06;2.40;99.90
22471;DHT22;11402;51.374;6.594;2024-01-15T02:35:32;2.30;99.90
22471;DHT22;11402;51.374;6.594;2024-01-15T02:37:58;2.40;99.90
22471;DHT22;11402;51.374;6.594;2024-01-15T02:40:24;2.40;99.90
22471;DHT22;11402;51.374;6.594;2024-01-15T02:42:49;2.40;99.90
22471;DHT22;11402;51.374;6.594;2024-01-15T02:45:15;2.40;99.90
22471;DHT22;11402;51.374;6.594;2024-01-15T02:47:40;2.40;99.90
22471;DHT22;11402;51.374;6.594;2024-01-15T02:50:06;2.40;99.90
22471;DHT22;11402;51.374;6.594;2024-01-15T02:52:32;2.30;99.90
22471;DHT22;11402;51.374;6.594;2024-01-15T02:54:57;2.40;99.90
22471;DHT22;11402;51.374;6.594;2024-01-15T02:57:23;2.50;99.90
22471;DHT22;11402;51.374;6.594;2024-01-15T02:59:48;2.50;99.90
22471;DHT22;11402;51.374;6.594;2024-01-15T03:02:14;2.50;99.90
22471;DHT22;11402;51.374;6.594;2024-01-15T03:04:44;2.40;99.90
22471;DHT22;11402;51.374;6.594;2024-01-15T03:07:09;2.40;99.90
22471;DHT22;11402;51.374;6.594;2024-01-15T03:09:35;2.40;99.90
22471;DHT22;11402;51.374;6.594;2024-01-15T03:12:00;2.50;99.90
22471;DHT22;11402;51.374;6.594;2024-01-15T03:14:26;2.50;99.90
22471;DHT22;11402;51.374;6.594;2024-01-15T03:16:52;2.50;99.90
22471;DHT22;11402;51.374;6.594;2024-01-15T03:19:18;2.50;99.90
22471;DHT22;11402;51.374;6.594;2024-01-15T03:21:43;2.50;99.90
22471;DHT22;11402;51.374;6.594;2024-01-15T03:24:09;2.40;99.90
22471;DHT22;11402;51.374;6.594;2024-01-15T03:26:34;2.40;99.90
22471;DHT22;11402;51.374;6.594;2024-01-15T03:29:00;2.50;99.90
22471;DHT22;11402;51.374;6.594;2024-01-15T03:31:26;2.40;99.90
22471;DHT22;11402;51.374;6.594;2024-01-15T03:33:51;2.30;99.90
22471;DHT22;11402;51.374;6.594;2024-01-15T03:36:17;2.30;99.90
22471;DHT22;11402;51.374;6.594;2024-01-15T03:38:42;2.40;99.90
22471;DHT22;11402;51.374;6.594;2024-01-15T06:53:38;2.70;99.90
22471;DHT22;11402;51.374;6.594;2024-01-15T06:56:04;2.70;99.90
22471;DHT22;11402;51.374;6.594;2024-01-15T06:58:31;2.50;99.90
22471;DHT22;11402;51.374;6.594;2024-01-15T07:00:56;2.30;99.90
22471;DHT22;11402;51.374;6.594;2024-01-15T07:03:22;2.30;99.90
22471;DHT22;11402;51.374;6.594;2024-01-15T07:05:47;2.50;99.90
22471;DHT22;11402;51.374;6.594;2024-01-15T07:08:13;2.50;99.90
22471;DHT22;11402;51.374;6.594;2024-01-15T07:10:38;2.50;99.90
22471;DHT22;11402;51.374;6.594;2024-01-15T07:13:04;2.40;99.90
22471;DHT22;11402;51.374;6.594;2024-01-15T07:15:31;2.50;99.90
22471;DHT22;11402;51.374;6.594;2024-01-15T07:17:56;2.30;99.90
22471;DHT22;11402;51.374;6.594;2024-01-15T07:20:22;2.40;99.90
22471;DHT22;11402;51.374;6.594;2024-01-15T07:22:47;2.50;99.90
22471;DHT22;11402;51.374;6.594;2024-01-15T07:25:13;2.50;99.90
22471;DHT22;11402;51.374;6.594;2024-01-15T07:27:38;2.50;99.90
22471;DHT22;11402;51.374;6.594;2024-01-15T07:30:04;2.50;99.90
22471;DHT22;11402;51.374;6.594;2024-01-15T07:32:31;2.50;99.90
22471;DHT22;11402;51.374;6.594;2024-01-15T07:34:57;2.60;99.90
22471;DHT22;11402;51.374;6.594;2024-01-15T07:37:24;2.60;99.90
22471;DHT22;11402;51.374;6.594;2024-01-15T07:39:50;2.60;99.90
22471;DHT22;11402;51.374;6.594;2024-01-15T07:42:16;2.60;99.90
22471;DHT22;11402;51.374;6.594;2024-01-15T07:44:41;2.50;99.90
22471;DHT22;11402;51.374;6.594;2024-01-15T07:47:07;2.50;99.90
22471;DHT22;11402;51.374;6.594;2024-01-15T07:49:34;2.40;99.90
22471;DHT22;11402;51.374;6.594;2024-01-15T07:52:00;2.30;99.90
22471;DHT22;11402;51.374;6.594;2024-01-15T07:54:25;2.30;99.90
22471;DHT22;11402;51.374;6.594;2024-01-15T07:57:02;2.20;99.90
22471;DHT22;11402;51.374;6.594;2024-01-15T07:59:30;2.20;99.90
22471;DHT22;11402;51.374;6.594;2024-01-15T08:01:56;2.20;99.90
22471;DHT22;11402;51.374;6.594;2024-01-15T08:04:22;2.20;99.90
22471;DHT22;11402;51.374;6.594;2024-01-15T08:06:47;2.20;99.90
22471;DHT22;11402;51.374;6.594;2024-01-15T08:09:13;2.30;99.90
22471;DHT22;11402;51.374;6.594;2024-01-15T08:11:42;2.20;99.90
22471;DHT22;11402;51.374;6.594;2024-01-15T08:14:09;2.20;99.90
22471;DHT22;11402;51.374;6.594;2024-01-15T08:16:35;2.10;99.90
22471;DHT22;11402;51.374;6.594;2024-01-15T08:19:00;2.10;99.90
22471;DHT22;11402;51.374;6.594;2024-01-15T08:21:26;2.00;99.90
22471;DHT22;11402;51.374;6.594;2024-01-15T08:23:58;2.10;99.90
22471;DHT22;11402;51.374;6.594;2024-01-15T08:26:24;2.20;99.90
22471;DHT22;11402;51.374;6.594;2024-01-15T08:28:50;2.10;99.90
22471;DHT22;11402;51.374;6.594;2024-01-15T08:31:16;2.10;99.90
22471;DHT22;11402;51.374;6.594;2024-01-15T08:33:41;2.00;99.90
22471;DHT22;11402;51.374;6.594;2024-01-15T08:36:07;2.00;99.90
22471;DHT22;11402;51.374;6.594;2024-01-15T08:38:32;2.10;99.90
22471;DHT22;11402;51.374;6.594;2024-01-15T08:40:58;2.00;99.90
22471;DHT22;11402;51.374;6.594;2024-01-15T08:43:26;2.10;99.90
22471;DHT22;11402;51.374;6.594;2024-01-15T08:45:52;2.10;99.90
22471;DHT22;11402;51.374;6.594;2024-01-15T08:48:17;2.10;99.90
22471;DHT22;11402;51.374;6.594;2024-01-15T08:50:43;2.10;99.90
22471;DHT22;11402;51.374;6.594;2024-01-15T08:53:11;2.10;99.90
22471;DHT22;11402;51.374;6.594;2024-01-15T08:55:37;2.10;99.90
22471;DHT22;11402;51.374;6.594;2024-01-15T08:58:02;2.00;99.90
22471;DHT22;11402;51.374;6.594;2024-01-15T09:00:29;1.90;99.90
22471;DHT22;11402;51.374;6.594;2024-01-15T09:02:55;1.90;99.90
22471;DHT22;11402;51.374;6.594;2024-01-15T09:05:21;1.90;99.90
22471;DHT22;11402;51.374;6.594;2024-01-15T09:07:47;1.90;99.90
22471;DHT22;11402;51.374;6.594;2024-01-15T09:10:13;1.90;99.90
22471;DHT22;11402;51.374;6.594;2024-01-15T09:12:39;1.90;99.90
22471;DHT22;11402;51.374;6.594;2024-01-15T09:15:05;2.00;99.90
22471;DHT22;11402;51.374;6.594;2024-01-15T09:17:31;2.10;99.90
22471;DHT22;11402;51.374;6.594;2024-01-15T09:19:57;2.20;99.90
22471;DHT22;11402;51.374;6.594;2024-01-15T09:22:23;2.20;99.90
22471;DHT22;11402;51.374;6.594;2024-01-15T09:24:48;2.10;99.90
22471;DHT22;11402;51.374;6.594;2024-01-15T09:27:14;2.10;99.90
22471;DHT22;11402;51.374;6.594;2024-01-15T09:29:41;2.20;99.90
22471;DHT22;11402;51.374;6.594;2024-01-15T09:32:07;2.20;99.90
22471;DHT22;11402;51.374;6.594;2024-01-15T09:34:36;2.10;99.90
22471;DHT22;11402;51.374;6.594;2024-01-15T09:37:02;2.10;99.90
22471;DHT22;11402;51.374;6.594;2024-01-15T09:39:28;2.10;99.90
22471;DHT22;11402;51.374;6.594;2024-01-15T09:41:54;2.10;99.90
22471;DHT22;11402;51.374;6.594;2024-01-15T09:44:20;2.20;99.90
22471;DHT22;11402;51.374;6.594;2024-01-15T09:46:46;2.20;99.90
22471;DHT22;11402;51.374;6.594;2024-01-15T09:49:15;2.00;99.90
22471;DHT22;11402;51.374;6.594;2024-01-15T09:51:41;2.10;99.90
22471;DHT22;11402;51.374;6.594;2024-01-15T09:54:07;2.10;99.90
22471;DHT22;11402;51.374;6.594;2024-01-15T09:56:34;2.20;99.90
22471;DHT22;11402;51.374;6.594;2024-01-15T09:59:00;2.30;99.90
22471;DHT22;11402;51.374;6.594;2024-01-15T10:01:26;2.20;99.90
22471;DHT22;11402;51.374;6.594;2024-01-15T10:03:54;2.10;99.90
22471;DHT22;11402;51.374;6.594;2024-01-15T10:06:21;2.10;99.90
22471;DHT22;11402;51.374;6.594;2024-01-15T10:08:51;2.20;99.90
22471;DHT22;11402;51.374;6.594;2024-01-15T10:11:16;2.20;99.90
22471;DHT22;11402;51.374;6.594;2024-01-15T10:13:48;2.40;99.90
22471;DHT22;11402;51.374;6.594;2024-01-15T10:16:21;2.30;99.90
22471;DHT22;11402;51.374;6.594;2024-01-15T10:18:48;2.30;99.90
22471;DHT22;11402;51.374;6.594;2024-01-15T10:21:13;2.30;99.90
22471;DHT22;11402;51.374;6.594;2024-01-15T10:23:39;2.40;99.90
22471;DHT22;11402;51.374;6.594;2024-01-15T10:26:05;2.30;99.90
22471;DHT22;11402;51.374;6.594;2024-01-15T10:28:31;2.30;99.90
22471;DHT22;11402;51.374;6.594;2024-01-15T10:30:59;2.40;99.90
22471;DHT22;11402;51.374;6.594;2024-01-15T10:33:25;2.50;99.90
22471;DHT22;11402;51.374;6.594;2024-01-15T10:35:59;2.40;99.90
22471;DHT22;11402;51.374;6.594;2024-01-15T10:38:26;2.50;99.90
22471;DHT22;11402;51.374;6.594;2024-01-15T10:40:52;2.40;99.90
22471;DHT22;11402;51.374;6.594;2024-01-15T10:43:19;2.50;99.90
22471;DHT22;11402;51.374;6.594;2024-01-15T10:45:50;2.50;99.90
22471;DHT22;11402;51.374;6.594;2024-01-15T10:48:18;2.60;99.90
22471;DHT22;11402;51.374;6.594;2024-01-15T10:50:46;2.60;99.90
22471;DHT22;11402;51.374;6.594;2024-01-15T10:53:13;2.70;99.90
22471;DHT22;11402;51.374;6.594;2024-01-15T10:55:41;2.80;99.90
22471;DHT22;11402;51.374;6.594;2024-01-15T10:58:07;2.80;99.90
22471;DHT22;11402;51.374;6.594;2024-01-15T11:00:37;2.70;99.90
22471;DHT22;11402;51.374;6.594;2024-01-15T11:03:04;2.70;99.90
22471;DHT22;11402;51.374;6.594;2024-01-15T11:08:09;2.50;99.90
